Time;durP1;ratioP1;P1;durP2;ratioP2;P2;SDS_P1;SDS_P2;PMS_P1;PMS_P2;Temp;Humidity;BMP_temperature;BMP_pressure;BME280_temperature;BME280_humidity;BME280_pressure;Samples;Min_cycle;Max_cycle;Signal;HPM_P1;HPM_P2
2022/10/02 00:02:04;;;;;;;18.40;2.75;;;12.00;99.90;;;;;;5040890;28;19931;-72
2022/10/02 00:04:54;;;;;;;11.32;2.30;;;12.00;99.90;;;;;;5053638;28;20037;-73
2022/10/02 00:07:30;;;;;;;14.20;2.53;;;12.00;99.90;;;;;;5034146;28;20087;-73
2022/10/02 00:09:59;;;;;;;11.85;2.35;;;12.00;99.90;;;;;;5089023;28;20067;-73
2022/10/02 00:12:28;;;;;;;12.98;2.60;;;12.00;99.90;;;;;;5060386;28;20394;-74
2022/10/02 00:15:01;;;;;;;12.75;2.50;;;11.90;99.90;;;;;;5073327;28;20049;-74
2022/10/02 00:17:32;;;;;;;10.77;2.60;;;11.90;99.90;;;;;;5070013;28;20041;-73
2022/10/02 00:19:58;;;;;;;10.82;2.35;;;11.90;99.90;;;;;;5055586;28;20037;-74
2022/10/02 00:22:51;;;;;;;8.40;2.05;;;11.90;99.90;;;;;;5071448;28;20044;-74
2022/10/02 00:25:34;;;;;;;9.88;2.63;;;12.00;99.90;;;;;;5060045;28;20040;-73
2022/10/02 00:28:07;;;;;;;11.65;2.45;;;11.90;99.90;;;;;;5062656;28;20037;-73
2022/10/02 00:30:43;;;;;;;11.43;2.40;;;11.80;99.90;;;;;;5063595;28;20151;-73
2022/10/02 00:33:19;;;;;;;9.43;2.30;;;11.80;99.90;;;;;;5047464;28;20048;-73
2022/10/02 00:36:14;;;;;;;11.40;2.80;;;11.80;99.90;;;;;;5083526;28;20136;-73
2022/10/02 00:38:42;;;;;;;11.07;2.30;;;11.80;99.90;;;;;;5044935;28;20060;-73
2022/10/02 00:41:42;;;;;;;13.35;2.78;;;11.70;99.90;;;;;;5065957;28;20071;-74
2022/10/02 00:44:23;;;;;;;16.38;3.05;;;11.70;99.90;;;;;;5082950;28;20072;-73
2022/10/02 00:47:07;;;;;;;12.32;2.67;;;11.60;99.90;;;;;;5091090;28;20158;-73
2022/10/02 00:49:47;;;;;;;14.35;3.05;;;11.60;99.90;;;;;;5068637;28;20048;-73
2022/10/02 00:52:48;;;;;;;10.55;2.63;;;11.60;99.90;;;;;;5069678;28;20185;-73
2022/10/02 00:55:32;;;;;;;16.65;2.47;;;11.60;99.90;;;;;;5067883;28;20052;-73
2022/10/02 00:58:30;;;;;;;11.07;2.45;;;11.50;99.90;;;;;;5050122;28;20056;-73
2022/10/02 01:01:11;;;;;;;14.93;2.97;;;11.50;99.90;;;;;;5067254;28;20140;-73
2022/10/02 01:03:39;;;;;;;;;;;11.50;99.90;;;;;;5067987;28;20037;-73
2022/10/02 01:06:07;;;;;;;14.95;3.03;;;11.50;99.90;;;;;;5052137;28;19920;-73
2022/10/02 01:08:34;;;;;;;10.18;2.75;;;11.50;99.90;;;;;;5033728;28;20051;-73
2022/10/02 01:11:00;;;;;;;9.82;2.60;;;11.40;99.90;;;;;;5063034;28;20052;-73
2022/10/02 01:13:26;;;;;;;12.88;2.50;;;11.40;99.90;;;;;;5057375;28;20402;-74
2022/10/02 01:15:56;;;;;;;13.75;2.28;;;11.40;99.90;;;;;;5054550;28;20040;-73
2022/10/02 01:18:21;;;;;;;11.57;2.20;;;11.40;99.90;;;;;;5058536;28;20040;-74
2022/10/02 01:20:54;;;;;;;11.68;2.30;;;11.40;99.90;;;;;;5060372;28;20041;-75
2022/10/02 01:23:37;;;;;;;17.90;3.17;;;11.40;99.90;;;;;;5049940;28;20064;-74
2022/10/02 01:26:03;;;;;;;17.77;2.63;;;11.30;99.90;;;;;;5050168;28;20052;-75
2022/10/02 01:28:29;;;;;;;12.18;2.50;;;11.30;99.90;;;;;;5050631;28;20417;-74
2022/10/02 01:31:09;;;;;;;10.15;2.33;;;11.30;99.90;;;;;;5055897;28;20036;-74
2022/10/02 01:33:42;;;;;;;13.00;2.63;;;11.30;99.90;;;;;;5054104;28;20081;-75
2022/10/02 01:36:10;;;;;;;12.70;2.45;;;11.30;99.90;;;;;;5081080;28;20207;-74
2022/10/02 01:38:37;;;;;;;12.68;3.08;;;11.30;99.90;;;;;;5065436;28;20041;-75
2022/10/02 01:41:03;;;;;;;15.77;2.58;;;11.30;99.90;;;;;;5067634;28;20051;-75
2022/10/02 01:43:58;;;;;;;16.73;2.35;;;11.30;99.90;;;;;;5060608;28;20037;-75
2022/10/02 01:46:27;;;;;;;14.30;2.30;;;11.30;99.90;;;;;;5051020;28;20053;-74
2022/10/02 01:49:04;;;;;;;11.05;2.33;;;11.30;99.90;;;;;;5049059;28;20485;-75
2022/10/02 01:51:46;;;;;;;14.20;2.78;;;11.30;99.90;;;;;;5056040;28;20037;-74
2022/10/02 01:54:30;;;;;;;8.80;2.25;;;11.30;99.90;;;;;;5046838;28;20048;-75
2022/10/02 01:57:09;;;;;;;17.55;2.33;;;11.30;99.90;;;;;;5060127;28;20055;-75
2022/10/02 02:00:03;;;;;;;13.98;2.83;;;11.30;99.90;;;;;;5049123;28;20090;-75
2022/10/02 02:03:12;;;;;;;12.20;2.83;;;11.30;99.90;;;;;;5056856;28;20467;-75
2022/10/02 02:06:13;;;;;;;19.38;2.58;;;11.30;99.90;;;;;;5088589;28;20053;-74
2022/10/02 02:09:09;;;;;;;12.23;1.80;;;11.30;99.90;;;;;;5063806;28;20137;-75
2022/10/02 02:11:43;;;;;;;14.77;2.15;;;11.30;99.90;;;;;;5065257;28;20123;-75
2022/10/02 02:14:23;;;;;;;16.52;3.22;;;11.30;99.90;;;;;;5097686;28;20071;-75
2022/10/02 02:17:15;;;;;;;14.50;2.28;;;11.30;99.90;;;;;;5064818;28;20051;-75
2022/10/02 02:19:49;;;;;;;15.75;2.85;;;11.30;99.90;;;;;;5062051;28;20037;-74
2022/10/02 02:22:28;;;;;;;17.48;2.60;;;11.30;99.90;;;;;;5065754;28;20386;-74
2022/10/02 02:25:00;;;;;;;12.85;2.47;;;11.30;99.90;;;;;;5061344;28;20040;-75
2022/10/02 02:27:32;;;;;;;11.98;1.75;;;11.30;99.90;;;;;;5067013;28;20124;-75
2022/10/02 02:30:00;;;;;;;;;;;11.30;99.90;;;;;;5067871;28;20048;-74
2022/10/02 02:32:30;;;;;;;12.68;2.67;;;11.30;99.90;;;;;;5054022;28;19973;-75
2022/10/02 02:35:06;;;;;;;20.27;3.00;;;11.40;99.90;;;;;;5058860;28;20053;-74
2022/10/02 02:37:35;;;;;;;13.88;2.03;;;11.30;99.90;;;;;;5065128;28;20047;-75
2022/10/02 02:40:06;;;;;;;14.32;2.10;;;11.30;99.90;;;;;;5060171;28;20112;-75
2022/10/02 02:42:40;;;;;;;11.00;2.30;;;11.30;99.90;;;;;;5055920;28;20040;-75
2022/10/02 02:45:20;;;;;;;13.10;2.33;;;11.30;99.90;;;;;;5065445;28;20044;-75
2022/10/02 02:47:50;;;;;;;11.13;2.08;;;11.30;99.90;;;;;;5066093;28;20056;-75
2022/10/02 02:50:20;;;;;;;10.18;1.80;;;11.30;99.90;;;;;;5041738;28;20056;-75
2022/10/02 02:53:12;;;;;;;14.18;2.33;;;11.40;99.90;;;;;;5059832;28;20049;-74
2022/10/02 02:55:47;;;;;;;14.40;1.83;;;11.40;99.90;;;;;;5059687;28;20048;-75
2022/10/02 02:58:30;;;;;;;16.88;2.17;;;11.40;99.90;;;;;;5048767;28;20048;-75
2022/10/02 03:00:56;;;;;;;13.05;1.60;;;11.40;99.90;;;;;;5060610;28;20094;-75
2022/10/02 03:03:22;;;;;;;13.30;2.13;;;11.40;99.90;;;;;;5065648;28;20037;-75
2022/10/02 03:06:00;;;;;;;17.40;2.17;;;11.40;99.90;;;;;;5066710;28;20052;-75
2022/10/02 03:08:30;;;;;;;13.95;1.98;;;11.40;99.90;;;;;;5044778;28;20087;-75
2022/10/02 03:11:08;;;;;;;10.63;1.70;;;11.40;99.90;;;;;;5062987;28;20386;-75
2022/10/02 03:14:04;;;;;;;16.80;2.08;;;11.40;99.90;;;;;;5048243;28;20057;-75
2022/10/02 03:17:08;;;;;;;15.05;2.25;;;11.50;99.90;;;;;;5056831;28;20386;-75
2022/10/02 03:19:54;;;;;;;20.55;2.38;;;11.50;99.90;;;;;;5090989;28;20047;-75
2022/10/02 03:22:29;;;;;;;17.17;1.90;;;11.50;99.90;;;;;;5046032;28;20055;-75
2022/10/02 03:25:09;;;;;;;12.80;2.20;;;11.50;99.90;;;;;;5062530;28;20342;-74
2022/10/02 03:27:43;;;;;;;14.13;1.67;;;11.40;99.90;;;;;;5064069;28;20036;-75
2022/10/02 03:30:14;;;;;;;14.82;2.15;;;11.40;99.90;;;;;;5080754;28;20291;-75
2022/10/02 03:32:42;;;;;;;10.88;2.28;;;11.40;99.90;;;;;;5090730;28;20079;-75
2022/10/02 03:35:11;;;;;;;9.63;1.77;;;11.40;99.90;;;;;;5066195;28;20048;-75
2022/10/02 03:37:39;;;;;;;19.35;2.28;;;11.40;99.90;;;;;;5061813;28;20757;-75
2022/10/02 03:40:05;;;;;;;19.52;2.25;;;11.40;99.90;;;;;;5064217;28;20135;-75
2022/10/02 03:42:33;;;;;;;15.82;2.22;;;11.50;99.90;;;;;;5058337;28;20524;-75
2022/10/02 03:44:59;;;;;;;17.38;1.95;;;11.50;99.90;;;;;;5042537;28;20053;-75
2022/10/02 03:47:25;;;;;;;16.60;2.28;;;11.50;99.90;;;;;;5086028;28;20074;-75
2022/10/02 03:49:51;;;;;;;11.23;2.22;;;11.50;99.90;;;;;;5055476;28;20048;-74
2022/10/02 03:52:19;;;;;;;11.93;1.80;;;11.50;99.90;;;;;;5040578;28;20536;-73
2022/10/02 03:54:44;;;;;;;15.65;2.42;;;11.40;99.90;;;;;;5051347;28;20490;-74
2022/10/02 03:57:19;;;;;;;12.70;1.70;;;11.40;99.90;;;;;;5062942;28;20040;-74
2022/10/02 04:00:03;;;;;;;10.00;1.73;;;11.50;99.90;;;;;;5045773;28;20052;-74
2022/10/02 04:02:51;;;;;;;17.60;1.85;;;11.40;99.90;;;;;;5050726;28;20139;-74
2022/10/02 04:05:27;;;;;;;11.35;1.90;;;11.40;99.90;;;;;;5061909;28;20075;-75
2022/10/02 04:07:59;;;;;;;17.05;1.92;;;11.40;99.90;;;;;;5056807;28;20036;-75
2022/10/02 04:10:30;;;;;;;;;;;11.40;99.90;;;;;;5057847;28;20324;-74
2022/10/02 04:13:08;;;;;;;13.15;2.17;;;11.40;99.90;;;;;;5043164;28;20014;-75
2022/10/02 04:16:00;;;;;;;17.33;2.53;;;11.40;99.90;;;;;;5046077;28;20649;-74
2022/10/02 04:18:45;;;;;;;20.92;2.53;;;11.40;99.90;;;;;;5046683;28;20045;-75
2022/10/02 04:21:35;;;;;;;16.15;1.92;;;11.30;99.90;;;;;;5054978;28;20052;-75
2022/10/02 04:24:28;;;;;;;13.90;2.33;;;11.50;99.90;;;;;;5071425;28;20053;-75
2022/10/02 04:27:13;;;;;;;12.68;2.35;;;11.30;99.90;;;;;;5051341;28;20052;-75
2022/10/02 04:29:58;;;;;;;14.35;2.35;;;11.30;99.90;;;;;;5049263;28;20088;-76
2022/10/02 04:32:33;;;;;;;16.98;2.45;;;11.30;99.90;;;;;;5052107;28;20040;-75
2022/10/02 04:34:59;;;;;;;13.23;2.28;;;11.30;99.90;;;;;;5065776;28;20154;-75
2022/10/02 04:37:46;;;;;;;16.25;1.88;;;11.30;99.90;;;;;;5064251;28;20040;-76
2022/10/02 04:40:14;;;;;;;15.80;2.15;;;11.30;99.90;;;;;;5059742;28;20048;-75
2022/10/02 04:42:51;;;;;;;20.08;2.67;;;11.30;99.90;;;;;;5050123;28;20387;-75
2022/10/02 04:45:29;;;;;;;20.35;2.85;;;11.20;99.90;;;;;;5079668;28;20053;-73
2022/10/02 04:48:22;;;;;;;17.98;2.47;;;11.30;99.90;;;;;;5035753;28;20129;-73
2022/10/02 04:51:04;;;;;;;14.18;2.38;;;11.30;99.90;;;;;;5049733;28;20521;-73
2022/10/02 04:53:44;;;;;;;18.20;1.60;;;11.30;99.90;;;;;;5060764;28;20147;-75
2022/10/02 04:56:24;;;;;;;14.90;2.15;;;11.20;99.90;;;;;;5053261;28;20052;-74
2022/10/02 04:59:14;;;;;;;10.10;2.28;;;11.20;99.90;;;;;;5053604;28;20051;-75
2022/10/02 05:01:40;;;;;;;12.80;2.03;;;11.20;99.90;;;;;;5036979;28;20057;-76
2022/10/02 05:04:37;;;;;;;14.80;1.73;;;11.20;99.90;;;;;;5036802;28;20106;-73
2022/10/02 05:07:40;;;;;;;13.18;1.83;;;11.10;99.90;;;;;;5054363;28;20080;-73
2022/10/02 05:10:33;;;;;;;10.65;1.98;;;11.10;99.90;;;;;;5079659;28;20067;-74
2022/10/02 05:13:26;;;;;;;10.00;2.38;;;11.10;99.90;;;;;;5048992;28;20405;-74
2022/10/02 05:16:13;;;;;;;12.35;1.80;;;11.10;99.90;;;;;;5058770;28;20048;-74
2022/10/02 05:19:17;;;;;;;14.57;2.13;;;11.10;99.90;;;;;;5044219;28;20486;-74
2022/10/02 05:22:01;;;;;;;15.50;2.35;;;11.00;99.90;;;;;;5058851;28;20529;-74
2022/10/02 05:24:45;;;;;;;16.23;2.60;;;11.00;99.90;;;;;;5054760;28;20413;-74
2022/10/02 05:27:48;;;;;;;14.90;2.00;;;11.00;99.90;;;;;;5050792;28;20491;-75
2022/10/02 05:30:16;;;;;;;11.70;1.90;;;11.00;99.90;;;;;;5042551;28;20045;-75
2022/10/02 05:32:48;;;;;;;12.13;2.00;;;10.80;99.90;;;;;;5035066;28;20622;-74
2022/10/02 05:35:36;;;;;;;10.75;2.03;;;10.90;99.90;;;;;;5050202;28;20090;-74
2022/10/02 05:38:07;;;;;;;14.75;1.63;;;10.90;99.90;;;;;;5051969;28;20040;-74
2022/10/02 05:40:43;;;;;;;17.17;2.20;;;10.90;99.90;;;;;;5054514;28;20044;-74
2022/10/02 05:43:16;;;;;;;14.05;2.33;;;10.90;99.90;;;;;;5059435;28;20436;-74
2022/10/02 05:45:53;;;;;;;15.38;1.95;;;10.80;99.90;;;;;;5060580;28;20428;-74
2022/10/02 05:48:36;;;;;;;10.23;1.60;;;10.80;99.90;;;;;;5057767;28;20052;-74
2022/10/02 05:51:09;;;;;;;13.45;2.20;;;10.80;99.90;;;;;;5053544;28;20198;-74
2022/10/02 05:53:56;;;;;;;10.43;1.95;;;10.70;99.90;;;;;;5078853;28;20101;-74
2022/10/02 05:56:39;;;;;;;13.30;1.95;;;10.70;99.90;;;;;;5053907;28;20106;-75
2022/10/02 05:59:34;;;;;;;15.65;1.77;;;10.70;99.90;;;;;;5058163;28;20040;-74
2022/10/02 06:02:16;;;;;;;9.02;1.60;;;10.70;99.90;;;;;;5057403;28;20075;-75
2022/10/02 06:04:52;;;;;;;13.05;1.58;;;10.70;99.90;;;;;;5089485;28;20151;-75
2022/10/02 06:07:19;;;;;;;14.60;1.90;;;10.70;99.90;;;;;;5044327;28;20048;-74
2022/10/02 06:09:55;;;;;;;11.00;1.55;;;10.60;99.90;;;;;;5042912;28;20033;-73
2022/10/02 06:12:55;;;;;;;10.85;1.67;;;10.70;99.90;;;;;;5056759;28;20056;-74
2022/10/02 06:15:40;;;;;;;16.60;2.38;;;10.70;99.90;;;;;;5050007;28;20041;-74
2022/10/02 06:18:16;;;;;;;11.02;2.00;;;10.70;99.90;;;;;;5048153;28;20507;-74
2022/10/02 06:21:00;;;;;;;12.18;2.05;;;10.70;99.90;;;;;;5053252;28;20132;-73
2022/10/02 06:23:39;;;;;;;16.35;1.95;;;10.70;99.90;;;;;;5053296;28;20073;-73
2022/10/02 06:26:36;;;;;;;9.50;1.70;;;10.70;99.90;;;;;;5046163;28;20067;-74
2022/10/02 06:29:35;;;;;;;13.90;2.22;;;10.70;99.90;;;;;;5057530;28;20045;-74
2022/10/02 06:32:37;;;;;;;13.90;2.72;;;10.80;99.90;;;;;;5055198;28;20044;-74
2022/10/02 06:35:15;;;;;;;12.60;1.95;;;10.80;99.90;;;;;;5051554;28;20048;-74
2022/10/02 06:37:57;;;;;;;11.70;1.83;;;10.90;99.90;;;;;;5051283;28;20119;-74
2022/10/02 06:40:54;;;;;;;16.23;2.53;;;10.90;99.90;;;;;;5070088;28;20049;-74
2022/10/02 06:43:39;;;;;;;13.85;2.13;;;10.90;99.90;;;;;;5054295;28;20090;-74
2022/10/02 06:46:33;;;;;;;17.20;1.88;;;11.00;99.90;;;;;;5057245;28;20116;-75
2022/10/02 06:49:20;;;;;;;20.10;2.50;;;11.10;99.90;;;;;;5039494;28;20094;-74
2022/10/02 06:51:52;;;;;;;19.63;2.50;;;11.20;99.90;;;;;;5053314;28;20409;-74
2022/10/02 06:54:49;;;;;;;20.90;2.50;;;11.20;99.90;;;;;;5037556;28;20113;-75
2022/10/02 06:57:53;;;;;;;21.60;2.70;;;11.30;99.90;;;;;;5038111;28;20421;-74
2022/10/02 07:00:20;;;;;;;12.50;2.45;;;11.30;99.90;;;;;;5048097;28;20068;-75
2022/10/02 07:03:16;;;;;;;16.40;2.30;;;11.30;99.90;;;;;;5051865;28;20056;-75
2022/10/02 07:05:44;;;;;;;18.73;2.47;;;11.40;99.90;;;;;;5051634;28;20064;-74
2022/10/02 07:08:25;;;;;;;16.45;1.73;;;11.50;99.90;;;;;;5057210;28;20093;-75
2022/10/02 07:11:14;;;;;;;19.20;2.72;;;11.60;99.90;;;;;;5052877;28;20825;-74
2022/10/02 07:13:46;;;;;;;21.90;2.38;;;11.60;99.90;;;;;;5068354;28;20148;-75
2022/10/02 07:16:18;;;;;;;15.93;2.25;;;11.60;99.90;;;;;;5069762;28;20685;-75
2022/10/02 07:19:25;;;;;;;18.55;2.47;;;11.60;99.90;;;;;;5055057;28;20406;-75
2022/10/02 07:22:28;;;;;;;21.92;2.63;;;11.70;99.90;;;;;;5052110;28;20053;-75
2022/10/02 07:25:24;;;;;;;16.55;1.88;;;11.70;99.90;;;;;;5055973;28;20379;-75
2022/10/02 07:27:50;;;;;;;19.70;2.85;;;11.70;99.90;;;;;;5066905;28;20082;-73
2022/10/02 07:30:17;;;;;;;17.58;1.92;;;11.80;99.90;;;;;;5062908;28;20052;-73
2022/10/02 07:32:58;;;;;;;15.52;2.13;;;11.90;99.90;;;;;;5043578;28;20071;-72
2022/10/02 07:35:26;;;;;;;25.52;2.50;;;12.00;99.90;;;;;;5036884;28;20145;-75
2022/10/02 07:38:16;;;;;;;18.98;3.42;;;12.10;99.90;;;;;;5062089;28;20048;-75
2022/10/02 07:41:17;;;;;;;18.85;2.20;;;12.10;99.90;;;;;;5038479;28;20051;-73
2022/10/02 07:44:18;;;;;;;13.18;2.13;;;12.10;99.90;;;;;;5047472;28;20080;-74
2022/10/02 07:47:22;;;;;;;14.55;2.78;;;12.10;99.90;;;;;;5067744;28;20094;-74
2022/10/02 07:49:55;;;;;;;21.27;2.50;;;12.10;99.90;;;;;;5044067;28;20056;-74
2022/10/02 07:52:34;;;;;;;15.10;3.10;;;12.10;99.90;;;;;;5055116;28;20063;-73
2022/10/02 07:55:10;;;;;;;17.65;2.60;;;12.10;99.90;;;;;;5043175;28;20132;-73
2022/10/02 07:57:53;;;;;;;15.57;2.78;;;12.20;99.90;;;;;;5031872;28;20414;-74
2022/10/02 08:00:23;;;;;;;16.73;2.92;;;12.10;99.90;;;;;;5083711;28;20446;-74
2022/10/02 08:02:58;;;;;;;11.25;2.20;;;12.20;99.90;;;;;;5047386;28;20049;-74
2022/10/02 08:05:33;;;;;;;15.05;2.63;;;12.20;99.90;;;;;;5055420;28;20101;-73
2022/10/02 08:08:03;;;;;;;15.68;2.03;;;12.20;99.90;;;;;;5041466;28;20137;-74
2022/10/02 08:10:37;;;;;;;19.63;2.50;;;12.30;99.90;;;;;;5053884;28;20065;-73
2022/10/02 08:13:19;;;;;;;13.98;2.83;;;12.30;99.90;;;;;;5045637;28;20109;-73
2022/10/02 08:15:47;;;;;;;15.05;2.70;;;12.30;99.90;;;;;;5051197;28;20160;-73
2022/10/02 08:18:35;;;;;;;15.85;3.05;;;12.30;99.90;;;;;;5052671;28;20048;-73
2022/10/02 08:21:11;;;;;;;20.65;2.97;;;12.30;99.90;;;;;;5063412;28;20076;-73
2022/10/02 08:23:44;;;;;;;13.25;2.33;;;12.30;99.90;;;;;;5047081;28;20117;-74
2022/10/02 08:26:29;;;;;;;14.98;2.10;;;12.30;99.90;;;;;;5057759;28;20043;-73
2022/10/02 08:29:04;;;;;;;20.05;2.60;;;12.30;99.90;;;;;;5065581;28;20497;-73
2022/10/02 08:31:31;;;;;;;9.48;2.03;;;12.30;99.90;;;;;;5057025;28;20412;-72
2022/10/02 08:34:27;;;;;;;18.10;2.47;;;12.30;99.90;;;;;;5054717;28;20170;-73
2022/10/02 08:37:02;;;;;;;13.93;2.95;;;12.30;99.90;;;;;;5046769;28;20060;-73
2022/10/02 08:39:31;;;;;;;16.40;2.72;;;12.40;99.90;;;;;;5048051;28;20048;-74
2022/10/02 08:42:17;;;;;;;16.23;2.80;;;12.40;99.90;;;;;;5054332;28;20104;-74
2022/10/02 08:45:14;;;;;;;12.60;2.22;;;12.40;99.90;;;;;;5059721;28;20120;-73
2022/10/02 08:48:07;;;;;;;12.50;2.20;;;12.50;99.90;;;;;;5055503;28;20040;-73
2022/10/02 08:50:32;;;;;;;13.02;1.95;;;12.50;99.90;;;;;;5045046;28;20063;-74
2022/10/02 08:53:01;;;;;;;13.13;2.25;;;12.50;99.90;;;;;;5051341;28;21270;-74
2022/10/02 08:55:57;;;;;;;13.32;2.67;;;12.60;99.90;;;;;;5044342;28;20401;-74
2022/10/02 08:58:44;;;;;;;13.43;2.17;;;12.70;99.90;;;;;;5042556;28;20552;-75
2022/10/02 09:01:13;;;;;;;12.32;2.60;;;12.90;99.90;;;;;;5050752;28;20052;-72
2022/10/02 09:03:41;;;;;;;16.08;2.33;;;13.10;99.90;;;;;;5054699;28;20049;-72
2022/10/02 09:06:19;;;;;;;21.42;2.25;;;13.20;99.90;;;;;;5036151;28;20116;-72
2022/10/02 09:08:57;;;;;;;13.13;3.10;;;13.40;99.90;;;;;;5042469;28;20060;-73
2022/10/02 09:11:49;;;;;;;10.07;1.98;;;13.50;99.90;;;;;;5043434;28;20141;-73
2022/10/02 09:14:41;;;;;;;9.75;1.70;;;13.60;99.90;;;;;;5024883;28;20112;-73
2022/10/02 09:17:22;;;;;;;12.77;1.90;;;13.60;99.90;;;;;;5056933;28;20128;-75
2022/10/02 09:20:29;;;;;;;16.75;2.20;;;13.60;99.90;;;;;;5044043;28;20405;-74
2022/10/02 09:23:33;;;;;;;10.25;2.00;;;13.70;99.90;;;;;;5037305;28;20113;-73
2022/10/02 09:26:36;;;;;;;13.18;2.20;;;13.70;99.90;;;;;;5044477;28;20083;-73
2022/10/02 09:29:39;;;;;;;16.00;2.40;;;13.80;99.90;;;;;;5046957;28;20036;-74
2022/10/02 09:32:42;;;;;;;17.73;2.35;;;13.80;99.90;;;;;;5037723;28;20399;-73
2022/10/02 09:35:31;;;;;;;16.52;2.30;;;13.80;99.90;;;;;;5052126;28;20036;-73
2022/10/02 09:38:30;;;;;;;16.50;2.58;;;13.80;99.90;;;;;;5037798;28;20469;-73
2022/10/02 09:41:15;;;;;;;13.60;2.15;;;13.80;99.90;;;;;;5054218;28;20290;-73
2022/10/02 09:43:44;;;;;;;14.60;3.22;;;13.80;99.90;;;;;;5059271;28;20036;-73
2022/10/02 09:46:32;;;;;;;10.25;2.05;;;13.90;99.90;;;;;;5042852;28;20610;-74
2022/10/02 09:49:10;;;;;;;14.90;2.78;;;13.90;99.90;;;;;;5041622;28;20147;-74
2022/10/02 09:51:58;;;;;;;16.85;2.40;;;14.00;99.90;;;;;;5034162;28;20052;-74
2022/10/02 09:54:47;;;;;;;11.38;2.60;;;14.00;99.90;;;;;;5051109;28;20037;-74
2022/10/02 09:58:00;;;;;;;20.00;3.00;;;14.10;99.90;;;;;;5037732;28;20048;-74
2022/10/02 10:00:51;;;;;;;14.18;2.67;;;14.20;99.90;;;;;;5008382;28;20068;-74
2022/10/02 10:03:41;;;;;;;24.63;3.88;;;14.20;99.90;;;;;;5039349;28;20447;-74
2022/10/02 10:06:12;;;;;;;15.38;3.10;;;14.30;99.90;;;;;;5058889;28;21387;-74
2022/10/02 10:09:03;;;;;;;14.52;2.60;;;14.30;99.90;;;;;;5049861;28;20056;-74
2022/10/02 10:11:41;;;;;;;20.23;3.55;;;14.40;99.90;;;;;;5052412;28;20462;-74
2022/10/02 10:14:25;;;;;;;16.27;3.17;;;14.40;99.90;;;;;;5063970;28;20056;-74
2022/10/02 10:17:12;;;;;;;20.15;3.28;;;14.50;99.90;;;;;;5058257;28;20037;-74
2022/10/02 10:20:02;;;;;;;21.85;2.88;;;14.60;99.90;;;;;;5048026;28;20045;-74
2022/10/02 10:23:20;;;;;;;17.50;3.25;;;14.70;99.90;;;;;;5059299;28;20052;-75
2022/10/02 10:26:03;;;;;;;14.50;2.70;;;14.80;99.90;;;;;;5073398;28;20510;-74
2022/10/02 10:29:03;;;;;;;17.05;2.35;;;14.80;99.90;;;;;;5060171;28;20052;-74
2022/10/02 10:32:06;;;;;;;14.60;2.67;;;14.70;99.90;;;;;;5043600;28;20052;-74
2022/10/02 10:34:44;;;;;;;15.98;2.25;;;14.60;99.90;;;;;;5071657;28;20041;-73
2022/10/02 10:40:39;;;;;;;17.40;2.90;;;14.60;99.90;;;;;;5052234;28;20049;-74
2022/10/02 10:43:40;;;;;;;14.88;2.80;;;14.70;99.90;;;;;;5047790;28;20104;-74
2022/10/02 10:46:30;;;;;;;19.52;2.75;;;14.60;99.90;;;;;;5033172;28;20145;-73
2022/10/02 10:49:34;;;;;;;18.05;2.55;;;14.60;99.90;;;;;;5031285;28;20509;-73
2022/10/02 10:52:37;;;;;;;12.43;2.65;;;14.60;99.90;;;;;;5028954;28;20067;-73
2022/10/02 10:55:15;;;;;;;20.95;3.22;;;14.60;99.90;;;;;;5040825;28;20479;-73
2022/10/02 10:57:59;;;;;;;20.73;3.13;;;14.60;99.90;;;;;;5056580;28;20052;-73
2022/10/02 11:00:50;;;;;;;17.38;2.75;;;14.60;99.90;;;;;;5050766;28;20048;-73
2022/10/02 11:03:35;;;;;;;17.50;2.63;;;14.80;99.90;;;;;;5059995;28;20067;-74
2022/10/02 11:06:22;;;;;;;16.55;2.05;;;14.70;99.90;;;;;;5034461;28;20052;-66
2022/10/02 11:09:03;;;;;;;15.52;1.95;;;14.70;99.90;;;;;;5051557;28;20071;-67
2022/10/02 11:11:56;;;;;;;18.73;2.95;;;14.70;99.90;;;;;;5066102;28;20524;-67
2022/10/02 11:14:42;;;;;;;15.85;2.90;;;14.80;99.90;;;;;;5035366;28;20644;-69
2022/10/02 11:17:22;;;;;;;16.33;2.45;;;14.90;99.90;;;;;;5031107;28;20267;-69
2022/10/02 11:20:22;;;;;;;17.08;2.17;;;15.00;99.90;;;;;;5030889;28;20049;-68
2022/10/02 11:23:26;;;;;;;13.57;2.63;;;15.10;99.90;;;;;;5021277;28;20060;-69
2022/10/02 11:26:00;;;;;;;;;;;15.10;99.90;;;;;;5066872;28;20147;-68
2022/10/02 11:28:48;;;;;;;12.25;2.05;;;15.20;99.90;;;;;;5033738;28;20074;-68
2022/10/02 11:31:39;;;;;;;12.05;2.53;;;15.30;99.90;;;;;;5038352;28;20076;-70
2022/10/02 11:34:18;;;;;;;15.40;2.60;;;15.40;99.90;;;;;;5021675;28;20071;-70
2022/10/02 11:37:16;;;;;;;13.43;2.25;;;15.40;99.90;;;;;;5041135;28;20053;-69
2022/10/02 11:40:15;;;;;;;13.80;2.00;;;15.40;99.90;;;;;;5040998;28;20064;-68
2022/10/02 11:42:56;;;;;;;13.65;2.25;;;15.30;99.90;;;;;;5004330;28;20096;-73
2022/10/02 11:45:54;;;;;;;11.90;2.33;;;15.30;99.90;;;;;;5035968;28;20045;-69
2022/10/02 11:48:50;;;;;;;16.45;2.13;;;15.40;99.90;;;;;;5022625;28;20130;-70
2022/10/02 11:51:27;;;;;;;11.23;1.58;;;15.40;99.90;;;;;;5021297;28;20572;-69
2022/10/02 11:53:58;;;;;;;16.85;2.50;;;15.50;99.90;;;;;;5027560;28;20052;-70
2022/10/02 11:56:37;;;;;;;16.83;3.20;;;15.60;99.90;;;;;;5035889;28;20037;-70
2022/10/02 11:59:39;;;;;;;14.75;2.40;;;15.60;99.90;;;;;;5020098;28;20314;-69
2022/10/02 12:02:37;;;;;;;16.65;2.60;;;15.70;99.90;;;;;;5029453;28;20186;-70
2022/10/02 12:05:14;;;;;;;11.45;2.10;;;15.70;99.90;;;;;;5009213;28;20543;-69
2022/10/02 12:08:13;;;;;;;12.48;2.00;;;15.70;99.90;;;;;;5032637;28;20667;-70
2022/10/02 12:10:56;;;;;;;13.50;2.50;;;15.60;99.90;;;;;;5019509;28;20082;-70
2022/10/02 12:13:47;;;;;;;16.45;2.53;;;15.50;99.90;;;;;;5031754;28;21156;-69
2022/10/02 12:16:32;;;;;;;15.38;2.20;;;15.40;99.90;;;;;;5033936;28;20290;-70
2022/10/02 12:19:03;;;;;;;15.43;2.03;;;15.20;99.90;;;;;;5013669;28;20296;-69
2022/10/02 12:28:03;;;;;;;15.23;2.17;;;15.10;99.90;;;;;;5028937;28;20053;-70
2022/10/02 12:31:00;;;;;;;18.77;2.92;;;15.10;99.90;;;;;;5017562;28;20084;-71
2022/10/02 12:33:39;;;;;;;9.07;1.65;;;15.20;99.90;;;;;;5035420;28;20052;-70
2022/10/02 12:36:08;;;;;;;13.80;1.92;;;15.20;99.90;;;;;;5025120;28;20080;-70
2022/10/02 12:38:54;;;;;;;14.95;2.15;;;15.20;99.90;;;;;;5037984;28;20064;-69
2022/10/02 12:41:41;;;;;;;12.85;2.38;;;15.30;99.90;;;;;;5035080;28;20692;-69
2022/10/02 12:44:31;;;;;;;15.07;2.28;;;15.30;99.90;;;;;;5035935;28;20092;-70
2022/10/02 12:47:09;;;;;;;13.13;2.27;;;15.40;99.90;;;;;;5035106;28;20048;-70
2022/10/02 12:50:02;;;;;;;22.10;2.63;;;15.40;99.90;;;;;;5021849;28;20126;-71
2022/10/02 12:52:58;;;;;;;15.20;2.70;;;15.40;99.90;;;;;;5022776;28;20052;-71
2022/10/02 12:55:52;;;;;;;17.80;2.88;;;15.30;99.90;;;;;;5032107;28;20041;-70
2022/10/02 12:58:32;;;;;;;16.10;2.63;;;15.20;99.90;;;;;;5046282;28;20051;-69
2022/10/02 13:01:13;;;;;;;16.15;2.65;;;15.20;99.90;;;;;;5056971;28;20185;-71
2022/10/02 13:04:15;;;;;;;15.70;2.28;;;15.10;99.90;;;;;;5047388;28;20045;-72
2022/10/02 13:07:19;;;;;;;17.42;2.42;;;15.10;99.90;;;;;;5043677;28;20067;-71
2022/10/02 13:09:59;;;;;;;13.20;2.25;;;15.10;99.90;;;;;;5042315;28;20617;-71
2022/10/02 13:13:02;;;;;;;14.20;2.15;;;15.20;99.90;;;;;;5041572;28;20457;-71
2022/10/02 13:16:07;;;;;;;11.88;2.67;;;15.20;99.90;;;;;;5020066;28;22175;-70
2022/10/02 13:18:54;;;;;;;16.65;2.75;;;15.30;99.90;;;;;;5027347;28;20181;-72
2022/10/02 13:21:36;;;;;;;13.80;2.85;;;15.40;99.90;;;;;;5026184;28;22133;-70
2022/10/02 13:24:13;;;;;;;16.33;2.58;;;15.50;99.90;;;;;;5042054;28;20579;-72
2022/10/02 13:27:01;;;;;;;17.58;2.85;;;15.60;99.90;;;;;;5032394;28;20058;-71
2022/10/02 13:29:59;;;;;;;16.60;2.03;;;15.60;99.90;;;;;;5044729;28;20147;-70
2022/10/02 13:32:37;;;;;;;12.70;2.25;;;15.70;99.90;;;;;;5036975;28;20071;-69
2022/10/02 13:35:27;;;;;;;16.42;2.30;;;15.70;99.90;;;;;;5030026;28;20483;-71
2022/10/02 13:38:05;;;;;;;16.17;2.42;;;15.70;99.90;;;;;;5043280;28;20576;-71
2022/10/02 13:40:58;;;;;;;15.93;2.47;;;15.80;99.90;;;;;;5041307;28;20078;-71
2022/10/02 13:43:50;;;;;;;15.85;2.60;;;15.80;99.90;;;;;;5062510;28;20097;-71
2022/10/02 13:46:24;;;;;;;15.38;2.40;;;15.90;99.90;;;;;;5057422;28;20052;-71
2022/10/02 13:49:09;;;;;;;15.55;2.47;;;16.00;99.90;;;;;;5046926;28;20044;-71
2022/10/02 13:52:01;;;;;;;11.48;1.98;;;15.90;99.90;;;;;;5058490;28;20044;-70
2022/10/02 13:54:47;;;;;;;17.95;3.13;;;15.90;99.90;;;;;;5045055;28;20056;-70
2022/10/02 13:57:30;;;;;;;16.35;2.55;;;15.80;99.90;;;;;;5046057;28;20053;-70
2022/10/02 14:00:31;;;;;;;11.95;2.33;;;15.70;99.90;;;;;;5033981;28;20135;-71
2022/10/02 14:03:21;;;;;;;14.88;2.08;;;15.60;99.90;;;;;;5028393;28;20144;-71
2022/10/02 14:06:20;;;;;;;17.50;2.42;;;15.60;99.90;;;;;;5076343;28;20067;-71
2022/10/02 14:08:56;;;;;;;16.27;2.25;;;15.50;99.90;;;;;;5029474;28;20055;-70